sensor_id;sensor_type;location;lat;lon;timestamp;P1;durP1;ratioP1;P2;durP2;ratioP2
56329;SDS011;42236;48.058;10.632;2023-02-15T00:00:21;14.33;;;6.20;;
56329;SDS011;42236;48.058;10.632;2023-02-15T00:03:07;13.40;;;6.80;;
56329;SDS011;42236;48.058;10.632;2023-02-15T00:05:52;14.10;;;7.67;;
56329;SDS011;42236;48.058;10.632;2023-02-15T00:08:38;40.43;;;6.53;;
56329;SDS011;42236;48.058;10.632;2023-02-15T00:11:24;20.87;;;8.03;;
56329;SDS011;42236;48.058;10.632;2023-02-15T00:14:25;17.57;;;6.50;;
56329;SDS011;42236;48.058;10.632;2023-02-15T00:17:10;21.43;;;6.97;;
56329;SDS011;42236;48.058;10.632;2023-02-15T00:19:56;22.30;;;6.40;;
56329;SDS011;42236;48.058;10.632;2023-02-15T00:22:42;16.23;;;6.17;;
56329;SDS011;42236;48.058;10.632;2023-02-15T00:25:27;15.67;;;7.50;;
56329;SDS011;42236;48.058;10.632;2023-02-15T00:28:13;18.87;;;6.77;;
56329;SDS011;42236;48.058;10.632;2023-02-15T00:31:09;34.83;;;8.10;;
56329;SDS011;42236;48.058;10.632;2023-02-15T00:34:00;34.10;;;8.27;;
56329;SDS011;42236;48.058;10.632;2023-02-15T00:36:47;31.90;;;8.80;;
56329;SDS011;42236;48.058;10.632;2023-02-15T00:39:33;31.83;;;7.70;;
56329;SDS011;42236;48.058;10.632;2023-02-15T00:42:19;37.67;;;8.87;;
56329;SDS011;42236;48.058;10.632;2023-02-15T00:45:04;49.77;;;8.73;;
56329;SDS011;42236;48.058;10.632;2023-02-15T00:47:50;31.77;;;9.63;;
56329;SDS011;42236;48.058;10.632;2023-02-15T00:50:36;25.63;;;5.93;;
56329;SDS011;42236;48.058;10.632;2023-02-15T00:53:22;72.40;;;12.43;;
56329;SDS011;42236;48.058;10.632;2023-02-15T00:56:08;39.27;;;7.67;;
56329;SDS011;42236;48.058;10.632;2023-02-15T00:58:54;46.73;;;8.37;;
56329;SDS011;42236;48.058;10.632;2023-02-15T01:01:40;34.97;;;10.13;;
56329;SDS011;42236;48.058;10.632;2023-02-15T01:04:26;23.20;;;7.20;;
56329;SDS011;42236;48.058;10.632;2023-02-15T01:07:11;21.83;;;7.60;;
56329;SDS011;42236;48.058;10.632;2023-02-15T01:09:57;40.67;;;8.40;;
56329;SDS011;42236;48.058;10.632;2023-02-15T01:12:42;30.33;;;7.70;;
56329;SDS011;42236;48.058;10.632;2023-02-15T01:15:28;15.80;;;8.00;;
56329;SDS011;42236;48.058;10.632;2023-02-15T01:18:14;26.00;;;7.97;;
56329;SDS011;42236;48.058;10.632;2023-02-15T01:21:00;32.03;;;7.87;;
56329;SDS011;42236;48.058;10.632;2023-02-15T01:23:46;18.83;;;6.67;;
56329;SDS011;42236;48.058;10.632;2023-02-15T01:26:32;24.60;;;8.07;;
56329;SDS011;42236;48.058;10.632;2023-02-15T01:29:17;21.53;;;8.20;;
56329;SDS011;42236;48.058;10.632;2023-02-15T01:32:03;19.70;;;7.13;;
56329;SDS011;42236;48.058;10.632;2023-02-15T01:34:49;15.37;;;6.07;;
56329;SDS011;42236;48.058;10.632;2023-02-15T01:37:35;27.07;;;8.23;;
56329;SDS011;42236;48.058;10.632;2023-02-15T01:40:21;10.23;;;5.77;;
56329;SDS011;42236;48.058;10.632;2023-02-15T01:43:09;75.80;;;9.70;;
56329;SDS011;42236;48.058;10.632;2023-02-15T01:45:56;25.97;;;7.97;;
56329;SDS011;42236;48.058;10.632;2023-02-15T01:48:50;15.37;;;6.97;;
56329;SDS011;42236;48.058;10.632;2023-02-15T01:51:42;21.30;;;6.77;;
56329;SDS011;42236;48.058;10.632;2023-02-15T01:54:31;33.40;;;9.07;;
56329;SDS011;42236;48.058;10.632;2023-02-15T01:57:22;36.47;;;7.87;;
56329;SDS011;42236;48.058;10.632;2023-02-15T02:00:11;22.23;;;7.07;;
56329;SDS011;42236;48.058;10.632;2023-02-15T02:02:57;29.40;;;7.43;;
56329;SDS011;42236;48.058;10.632;2023-02-15T02:05:43;12.57;;;7.03;;
56329;SDS011;42236;48.058;10.632;2023-02-15T02:08:29;16.20;;;6.83;;
56329;SDS011;42236;48.058;10.632;2023-02-15T02:11:15;15.03;;;6.57;;
56329;SDS011;42236;48.058;10.632;2023-02-15T02:14:01;15.40;;;7.03;;
56329;SDS011;42236;48.058;10.632;2023-02-15T02:23:05;20.50;;;7.00;;
56329;SDS011;42236;48.058;10.632;2023-02-15T02:42:13;23.07;;;6.93;;
56329;SDS011;42236;48.058;10.632;2023-02-15T02:48:12;31.03;;;7.87;;
56329;SDS011;42236;48.058;10.632;2023-02-15T02:51:02;30.50;;;9.33;;
56329;SDS011;42236;48.058;10.632;2023-02-15T02:53:49;26.50;;;8.37;;
56329;SDS011;42236;48.058;10.632;2023-02-15T02:56:40;26.30;;;8.00;;
56329;SDS011;42236;48.058;10.632;2023-02-15T02:59:33;36.33;;;7.87;;
56329;SDS011;42236;48.058;10.632;2023-02-15T03:02:26;46.83;;;7.33;;
56329;SDS011;42236;48.058;10.632;2023-02-15T03:05:18;14.10;;;6.30;;
56329;SDS011;42236;48.058;10.632;2023-02-15T03:08:06;15.67;;;5.80;;
56329;SDS011;42236;48.058;10.632;2023-02-15T03:10:55;24.93;;;6.13;;
56329;SDS011;42236;48.058;10.632;2023-02-15T03:13:44;18.27;;;7.03;;
56329;SDS011;42236;48.058;10.632;2023-02-15T03:16:31;34.23;;;7.70;;
56329;SDS011;42236;48.058;10.632;2023-02-15T03:19:20;23.17;;;8.57;;
56329;SDS011;42236;48.058;10.632;2023-02-15T03:22:18;24.50;;;6.97;;
56329;SDS011;42236;48.058;10.632;2023-02-15T03:25:09;17.37;;;7.43;;
56329;SDS011;42236;48.058;10.632;2023-02-15T03:28:04;46.77;;;8.10;;
56329;SDS011;42236;48.058;10.632;2023-02-15T03:30:53;33.00;;;8.20;;
56329;SDS011;42236;48.058;10.632;2023-02-15T03:34:16;14.77;;;6.80;;
56329;SDS011;42236;48.058;10.632;2023-02-15T03:36:58;34.47;;;7.77;;
56329;SDS011;42236;48.058;10.632;2023-02-15T03:43:18;13.73;;;5.83;;
56329;SDS011;42236;48.058;10.632;2023-02-15T03:52:08;17.20;;;5.93;;
56329;SDS011;42236;48.058;10.632;2023-02-15T03:54:56;9.47;;;5.57;;
56329;SDS011;42236;48.058;10.632;2023-02-15T03:57:42;36.00;;;6.57;;
56329;SDS011;42236;48.058;10.632;2023-02-15T04:00:49;11.17;;;6.23;;
56329;SDS011;42236;48.058;10.632;2023-02-15T04:04:03;22.73;;;6.50;;
56329;SDS011;42236;48.058;10.632;2023-02-15T04:06:55;22.33;;;6.83;;
56329;SDS011;42236;48.058;10.632;2023-02-15T04:09:40;12.27;;;6.13;;
56329;SDS011;42236;48.058;10.632;2023-02-15T04:12:45;27.53;;;8.10;;
56329;SDS011;42236;48.058;10.632;2023-02-15T04:15:31;15.27;;;6.40;;
56329;SDS011;42236;48.058;10.632;2023-02-15T04:18:39;26.67;;;5.87;;
56329;SDS011;42236;48.058;10.632;2023-02-15T04:21:45;11.70;;;6.13;;
56329;SDS011;42236;48.058;10.632;2023-02-15T04:24:49;21.50;;;6.47;;
56329;SDS011;42236;48.058;10.632;2023-02-15T04:27:54;15.97;;;5.67;;
56329;SDS011;42236;48.058;10.632;2023-02-15T04:30:40;23.83;;;6.13;;
56329;SDS011;42236;48.058;10.632;2023-02-15T04:33:25;7.63;;;4.70;;
56329;SDS011;42236;48.058;10.632;2023-02-15T04:36:11;14.57;;;5.73;;
56329;SDS011;42236;48.058;10.632;2023-02-15T04:38:56;23.93;;;7.10;;
56329;SDS011;42236;48.058;10.632;2023-02-15T04:41:42;20.40;;;7.73;;
56329;SDS011;42236;48.058;10.632;2023-02-15T04:44:28;17.13;;;6.47;;
56329;SDS011;42236;48.058;10.632;2023-02-15T04:47:14;18.53;;;5.93;;
56329;SDS011;42236;48.058;10.632;2023-02-15T04:50:00;24.87;;;7.60;;
56329;SDS011;42236;48.058;10.632;2023-02-15T04:52:45;35.17;;;7.73;;
56329;SDS011;42236;48.058;10.632;2023-02-15T04:55:36;15.37;;;5.77;;
56329;SDS011;42236;48.058;10.632;2023-02-15T04:58:21;15.27;;;5.93;;
56329;SDS011;42236;48.058;10.632;2023-02-15T05:01:07;34.33;;;5.43;;
56329;SDS011;42236;48.058;10.632;2023-02-15T05:03:54;15.37;;;6.87;;
56329;SDS011;42236;48.058;10.632;2023-02-15T05:06:39;25.60;;;7.17;;
56329;SDS011;42236;48.058;10.632;2023-02-15T05:09:25;31.67;;;6.03;;
56329;SDS011;42236;48.058;10.632;2023-02-15T05:12:11;21.67;;;5.37;;
56329;SDS011;42236;48.058;10.632;2023-02-15T05:14:57;15.40;;;7.93;;
56329;SDS011;42236;48.058;10.632;2023-02-15T05:17:42;16.57;;;7.27;;
56329;SDS011;42236;48.058;10.632;2023-02-15T05:20:28;19.70;;;6.73;;
56329;SDS011;42236;48.058;10.632;2023-02-15T05:23:14;13.33;;;7.33;;
56329;SDS011;42236;48.058;10.632;2023-02-15T05:26:00;11.07;;;6.43;;
56329;SDS011;42236;48.058;10.632;2023-02-15T05:29:04;7.77;;;6.03;;
56329;SDS011;42236;48.058;10.632;2023-02-15T05:31:50;13.90;;;6.30;;
56329;SDS011;42236;48.058;10.632;2023-02-15T05:34:36;9.40;;;5.70;;
56329;SDS011;42236;48.058;10.632;2023-02-15T05:37:21;7.50;;;5.60;;
56329;SDS011;42236;48.058;10.632;2023-02-15T05:40:07;9.37;;;5.77;;
56329;SDS011;42236;48.058;10.632;2023-02-15T05:42:53;6.30;;;5.00;;
56329;SDS011;42236;48.058;10.632;2023-02-15T05:45:39;6.90;;;5.53;;
56329;SDS011;42236;48.058;10.632;2023-02-15T05:48:25;6.50;;;4.60;;
56329;SDS011;42236;48.058;10.632;2023-02-15T05:51:12;6.00;;;4.53;;
56329;SDS011;42236;48.058;10.632;2023-02-15T05:54:00;8.90;;;5.33;;
56329;SDS011;42236;48.058;10.632;2023-02-15T05:56:45;5.73;;;4.60;;
56329;SDS011;42236;48.058;10.632;2023-02-15T05:59:31;5.10;;;4.27;;
56329;SDS011;42236;48.058;10.632;2023-02-15T06:02:17;5.90;;;4.70;;
56329;SDS011;42236;48.058;10.632;2023-02-15T06:05:03;5.13;;;4.20;;
56329;SDS011;42236;48.058;10.632;2023-02-15T06:07:50;5.13;;;4.17;;
56329;SDS011;42236;48.058;10.632;2023-02-15T06:10:35;5.07;;;4.13;;
56329;SDS011;42236;48.058;10.632;2023-02-15T06:13:21;6.70;;;5.20;;
56329;SDS011;42236;48.058;10.632;2023-02-15T06:16:07;5.83;;;4.43;;
56329;SDS011;42236;48.058;10.632;2023-02-15T06:18:52;5.43;;;4.50;;
56329;SDS011;42236;48.058;10.632;2023-02-15T06:21:38;6.43;;;4.50;;
56329;SDS011;42236;48.058;10.632;2023-02-15T06:24:24;5.37;;;4.13;;
56329;SDS011;42236;48.058;10.632;2023-02-15T06:27:09;4.60;;;3.97;;
56329;SDS011;42236;48.058;10.632;2023-02-15T06:29:55;5.73;;;4.33;;
56329;SDS011;42236;48.058;10.632;2023-02-15T06:32:41;3.70;;;3.40;;
56329;SDS011;42236;48.058;10.632;2023-02-15T06:35:26;4.70;;;3.80;;
56329;SDS011;42236;48.058;10.632;2023-02-15T06:38:12;6.47;;;4.17;;
56329;SDS011;42236;48.058;10.632;2023-02-15T06:40:58;4.83;;;4.37;;
56329;SDS011;42236;48.058;10.632;2023-02-15T06:43:43;4.87;;;4.40;;
56329;SDS011;42236;48.058;10.632;2023-02-15T06:46:29;6.73;;;4.90;;
56329;SDS011;42236;48.058;10.632;2023-02-15T06:49:15;6.07;;;4.87;;
56329;SDS011;42236;48.058;10.632;2023-02-15T06:52:00;9.37;;;6.27;;
56329;SDS011;42236;48.058;10.632;2023-02-15T06:54:46;10.53;;;6.63;;
56329;SDS011;42236;48.058;10.632;2023-02-15T06:57:32;7.43;;;5.03;;
56329;SDS011;42236;48.058;10.632;2023-02-15T07:00:18;5.63;;;4.10;;
56329;SDS011;42236;48.058;10.632;2023-02-15T07:03:04;5.03;;;4.20;;
56329;SDS011;42236;48.058;10.632;2023-02-15T07:05:53;8.17;;;4.80;;
56329;SDS011;42236;48.058;10.632;2023-02-15T07:08:43;8.20;;;5.10;;
56329;SDS011;42236;48.058;10.632;2023-02-15T07:11:28;8.53;;;6.30;;
56329;SDS011;42236;48.058;10.632;2023-02-15T07:14:33;6.73;;;5.60;;
56329;SDS011;42236;48.058;10.632;2023-02-15T07:17:18;7.17;;;5.50;;
56329;SDS011;42236;48.058;10.632;2023-02-15T07:20:05;6.43;;;4.77;;
56329;SDS011;42236;48.058;10.632;2023-02-15T07:22:53;8.00;;;4.93;;
56329;SDS011;42236;48.058;10.632;2023-02-15T07:25:38;7.10;;;5.00;;
56329;SDS011;42236;48.058;10.632;2023-02-15T07:28:24;7.37;;;5.50;;
56329;SDS011;42236;48.058;10.632;2023-02-15T07:31:10;6.73;;;4.57;;
56329;SDS011;42236;48.058;10.632;2023-02-15T07:33:55;9.13;;;5.30;;
56329;SDS011;42236;48.058;10.632;2023-02-15T07:36:41;7.53;;;5.30;;
56329;SDS011;42236;48.058;10.632;2023-02-15T07:39:29;6.87;;;5.37;;
56329;SDS011;42236;48.058;10.632;2023-02-15T07:42:14;7.17;;;4.80;;
56329;SDS011;42236;48.058;10.632;2023-02-15T07:45:00;8.87;;;5.03;;
56329;SDS011;42236;48.058;10.632;2023-02-15T07:47:46;10.60;;;5.87;;
56329;SDS011;42236;48.058;10.632;2023-02-15T07:50:32;8.83;;;5.40;;
56329;SDS011;42236;48.058;10.632;2023-02-15T07:53:17;12.57;;;5.37;;
56329;SDS011;42236;48.058;10.632;2023-02-15T07:56:04;11.20;;;6.47;;
56329;SDS011;42236;48.058;10.632;2023-02-15T07:58:51;8.90;;;5.37;;
56329;SDS011;42236;48.058;10.632;2023-02-15T08:01:38;9.07;;;6.30;;
56329;SDS011;42236;48.058;10.632;2023-02-15T08:04:24;8.77;;;6.47;;
56329;SDS011;42236;48.058;10.632;2023-02-15T08:07:09;9.23;;;6.23;;
56329;SDS011;42236;48.058;10.632;2023-02-15T08:09:55;10.73;;;7.17;;
56329;SDS011;42236;48.058;10.632;2023-02-15T08:12:41;9.73;;;6.67;;
56329;SDS011;42236;48.058;10.632;2023-02-15T08:15:26;10.43;;;6.60;;
56329;SDS011;42236;48.058;10.632;2023-02-15T08:18:12;11.83;;;7.67;;
56329;SDS011;42236;48.058;10.632;2023-02-15T08:20:58;9.97;;;6.57;;
56329;SDS011;42236;48.058;10.632;2023-02-15T08:23:43;8.93;;;6.30;;
56329;SDS011;42236;48.058;10.632;2023-02-15T08:26:29;11.43;;;6.30;;
56329;SDS011;42236;48.058;10.632;2023-02-15T08:29:17;9.03;;;6.83;;
56329;SDS011;42236;48.058;10.632;2023-02-15T08:32:06;8.13;;;6.37;;
56329;SDS011;42236;48.058;10.632;2023-02-15T08:34:54;8.33;;;5.83;;
56329;SDS011;42236;48.058;10.632;2023-02-15T08:37:39;8.10;;;5.27;;
56329;SDS011;42236;48.058;10.632;2023-02-15T08:40:25;7.97;;;5.80;;
56329;SDS011;42236;48.058;10.632;2023-02-15T08:43:11;8.50;;;6.33;;
56329;SDS011;42236;48.058;10.632;2023-02-15T08:45:56;13.37;;;6.70;;
56329;SDS011;42236;48.058;10.632;2023-02-15T08:48:42;7.87;;;6.93;;
56329;SDS011;42236;48.058;10.632;2023-02-15T08:51:37;8.47;;;5.60;;
56329;SDS011;42236;48.058;10.632;2023-02-15T08:54:23;10.80;;;4.60;;
56329;SDS011;42236;48.058;10.632;2023-02-15T08:57:09;10.93;;;5.33;;
56329;SDS011;42236;48.058;10.632;2023-02-15T08:59:55;7.70;;;5.67;;
56329;SDS011;42236;48.058;10.632;2023-02-15T09:02:41;7.60;;;5.40;;
56329;SDS011;42236;48.058;10.632;2023-02-15T09:05:27;8.00;;;5.63;;
56329;SDS011;42236;48.058;10.632;2023-02-15T09:08:12;7.27;;;5.03;;
56329;SDS011;42236;48.058;10.632;2023-02-15T09:11:05;7.40;;;5.60;;
56329;SDS011;42236;48.058;10.632;2023-02-15T09:13:53;6.50;;;4.87;;
56329;SDS011;42236;48.058;10.632;2023-02-15T09:16:41;9.63;;;6.37;;
56329;SDS011;42236;48.058;10.632;2023-02-15T09:19:31;9.53;;;6.03;;
56329;SDS011;42236;48.058;10.632;2023-02-15T09:22:16;9.83;;;6.20;;
56329;SDS011;42236;48.058;10.632;2023-02-15T09:25:02;8.40;;;6.47;;
56329;SDS011;42236;48.058;10.632;2023-02-15T09:27:48;9.47;;;6.10;;
56329;SDS011;42236;48.058;10.632;2023-02-15T09:30:34;11.30;;;6.43;;
56329;SDS011;42236;48.058;10.632;2023-02-15T09:33:19;7.10;;;5.23;;
56329;SDS011;42236;48.058;10.632;2023-02-15T09:36:06;7.07;;;5.53;;
56329;SDS011;42236;48.058;10.632;2023-02-15T09:48:14;9.30;;;5.80;;
56329;SDS011;42236;48.058;10.632;2023-02-15T09:51:31;5.27;;;4.57;;
56329;SDS011;42236;48.058;10.632;2023-02-15T09:54:33;7.03;;;5.20;;
56329;SDS011;42236;48.058;10.632;2023-02-15T09:57:44;9.30;;;5.37;;
56329;SDS011;42236;48.058;10.632;2023-02-15T10:03:40;5.47;;;4.77;;
56329;SDS011;42236;48.058;10.632;2023-02-15T10:27:32;6.83;;;4.37;;
56329;SDS011;42236;48.058;10.632;2023-02-15T10:30:46;8.30;;;4.80;;
56329;SDS011;42236;48.058;10.632;2023-02-15T10:33:37;4.83;;;4.30;;
56329;SDS011;42236;48.058;10.632;2023-02-15T10:58:42;8.03;;;4.03;;
56329;SDS011;42236;48.058;10.632;2023-02-15T11:01:44;6.87;;;4.67;;
56329;SDS011;42236;48.058;10.632;2023-02-15T11:04:51;5.10;;;3.83;;
56329;SDS011;42236;48.058;10.632;2023-02-15T11:07:43;4.43;;;3.77;;
56329;SDS011;42236;48.058;10.632;2023-02-15T11:13:28;6.47;;;4.03;;
56329;SDS011;42236;48.058;10.632;2023-02-15T11:16:40;6.53;;;4.50;;
56329;SDS011;42236;48.058;10.632;2023-02-15T11:19:34;5.93;;;4.37;;
56329;SDS011;42236;48.058;10.632;2023-02-15T11:22:23;6.57;;;4.00;;
56329;SDS011;42236;48.058;10.632;2023-02-15T11:25:17;5.47;;;3.80;;
56329;SDS011;42236;48.058;10.632;2023-02-15T11:28:06;5.07;;;4.37;;
56329;SDS011;42236;48.058;10.632;2023-02-15T11:31:11;5.83;;;4.37;;
56329;SDS011;42236;48.058;10.632;2023-02-15T11:34:03;6.67;;;4.03;;
56329;SDS011;42236;48.058;10.632;2023-02-15T11:36:58;10.57;;;3.87;;
56329;SDS011;42236;48.058;10.632;2023-02-15T11:39:47;3.97;;;3.33;;
56329;SDS011;42236;48.058;10.632;2023-02-15T11:42:36;5.50;;;4.20;;
56329;SDS011;42236;48.058;10.632;2023-02-15T11:45:26;6.10;;;3.77;;
56329;SDS011;42236;48.058;10.632;2023-02-15T11:48:14;9.33;;;3.23;;
56329;SDS011;42236;48.058;10.632;2023-02-15T11:51:01;6.50;;;2.60;;
56329;SDS011;42236;48.058;10.632;2023-02-15T11:53:48;4.33;;;3.30;;
56329;SDS011;42236;48.058;10.632;2023-02-15T11:56:34;3.40;;;2.87;;
56329;SDS011;42236;48.058;10.632;2023-02-15T11:59:31;3.13;;;2.80;;
56329;SDS011;42236;48.058;10.632;2023-02-15T12:02:21;4.07;;;2.53;;
56329;SDS011;42236;48.058;10.632;2023-02-15T12:05:15;3.23;;;2.93;;
56329;SDS011;42236;48.058;10.632;2023-02-15T12:08:09;5.67;;;2.77;;
56329;SDS011;42236;48.058;10.632;2023-02-15T12:11:05;4.53;;;3.17;;
56329;SDS011;42236;48.058;10.632;2023-02-15T12:13:58;3.00;;;2.20;;
56329;SDS011;42236;48.058;10.632;2023-02-15T12:16:50;5.07;;;3.07;;
56329;SDS011;42236;48.058;10.632;2023-02-15T12:19:39;3.93;;;3.00;;
56329;SDS011;42236;48.058;10.632;2023-02-15T12:22:27;4.70;;;4.30;;
56329;SDS011;42236;48.058;10.632;2023-02-15T12:25:32;4.83;;;3.83;;
56329;SDS011;42236;48.058;10.632;2023-02-15T12:31:19;3.50;;;2.97;;
56329;SDS011;42236;48.058;10.632;2023-02-15T12:37:27;3.77;;;3.30;;
56329;SDS011;42236;48.058;10.632;2023-02-15T12:40:18;6.50;;;3.90;;
56329;SDS011;42236;48.058;10.632;2023-02-15T12:43:26;5.90;;;4.17;;
56329;SDS011;42236;48.058;10.632;2023-02-15T12:51:55;9.17;;;3.40;;
56329;SDS011;42236;48.058;10.632;2023-02-15T12:54:43;5.67;;;3.07;;
56329;SDS011;42236;48.058;10.632;2023-02-15T12:57:32;7.57;;;3.73;;
56329;SDS011;42236;48.058;10.632;2023-02-15T13:03:04;5.20;;;3.67;;
56329;SDS011;42236;48.058;10.632;2023-02-15T13:05:50;5.10;;;3.43;;
56329;SDS011;42236;48.058;10.632;2023-02-15T13:08:48;5.50;;;3.73;;
56329;SDS011;42236;48.058;10.632;2023-02-15T13:11:35;5.37;;;3.70;;
56329;SDS011;42236;48.058;10.632;2023-02-15T13:14:31;5.33;;;3.40;;
56329;SDS011;42236;48.058;10.632;2023-02-15T13:17:18;6.60;;;3.13;;
56329;SDS011;42236;48.058;10.632;2023-02-15T13:20:21;4.80;;;3.40;;
56329;SDS011;42236;48.058;10.632;2023-02-15T13:23:19;7.47;;;3.87;;
56329;SDS011;42236;48.058;10.632;2023-02-15T13:26:14;5.60;;;3.53;;
56329;SDS011;42236;48.058;10.632;2023-02-15T13:29:10;7.33;;;4.13;;
56329;SDS011;42236;48.058;10.632;2023-02-15T13:32:25;6.20;;;3.73;;
56329;SDS011;42236;48.058;10.632;2023-02-15T13:35:14;5.67;;;3.70;;
56329;SDS011;42236;48.058;10.632;2023-02-15T13:41:32;5.70;;;3.87;;
56329;SDS011;42236;48.058;10.632;2023-02-15T13:54:43;7.63;;;3.53;;
56329;SDS011;42236;48.058;10.632;2023-02-15T14:10:45;8.32;;;4.18;;
56329;SDS011;42236;48.058;10.632;2023-02-15T14:13:44;5.80;;;3.20;;
56329;SDS011;42236;48.058;10.632;2023-02-15T14:23:29;6.90;;;3.95;;
56329;SDS011;42236;48.058;10.632;2023-02-15T14:26:32;5.57;;;3.72;;
56329;SDS011;42236;48.058;10.632;2023-02-15T14:32:11;6.18;;;3.88;;
56329;SDS011;42236;48.058;10.632;2023-02-15T14:35:03;7.13;;;4.60;;
56329;SDS011;42236;48.058;10.632;2023-02-15T14:41:04;8.88;;;5.75;;
56329;SDS011;42236;48.058;10.632;2023-02-15T14:44:02;9.98;;;5.90;;
56329;SDS011;42236;48.058;10.632;2023-02-15T14:47:04;7.78;;;6.03;;
56329;SDS011;42236;48.058;10.632;2023-02-15T14:49:53;8.02;;;5.32;;
56329;SDS011;42236;48.058;10.632;2023-02-15T14:53:00;6.80;;;4.85;;
56329;SDS011;42236;48.058;10.632;2023-02-15T14:58:55;9.67;;;6.70;;
56329;SDS011;42236;48.058;10.632;2023-02-15T15:02:29;12.27;;;6.40;;
56329;SDS011;42236;48.058;10.632;2023-02-15T15:08:29;8.23;;;6.03;;
56329;SDS011;42236;48.058;10.632;2023-02-15T15:14:36;10.13;;;7.07;;
56329;SDS011;42236;48.058;10.632;2023-02-15T15:29:15;9.87;;;6.93;;
56329;SDS011;42236;48.058;10.632;2023-02-15T15:32:25;12.77;;;7.43;;
56329;SDS011;42236;48.058;10.632;2023-02-15T15:35:24;11.27;;;7.47;;
56329;SDS011;42236;48.058;10.632;2023-02-15T15:45:22;9.97;;;7.60;;
56329;SDS011;42236;48.058;10.632;2023-02-15T15:51:14;8.48;;;7.25;;
56329;SDS011;42236;48.058;10.632;2023-02-15T15:54:05;12.53;;;8.43;;
56329;SDS011;42236;48.058;10.632;2023-02-15T15:56:53;12.02;;;8.82;;
56329;SDS011;42236;48.058;10.632;2023-02-15T15:59:45;13.60;;;9.53;;
56329;SDS011;42236;48.058;10.632;2023-02-15T16:02:31;11.07;;;8.53;;
56329;SDS011;42236;48.058;10.632;2023-02-15T16:05:17;12.17;;;9.43;;
56329;SDS011;42236;48.058;10.632;2023-02-15T16:08:03;16.98;;;9.63;;
56329;SDS011;42236;48.058;10.632;2023-02-15T16:10:48;13.57;;;9.90;;
56329;SDS011;42236;48.058;10.632;2023-02-15T16:13:34;11.80;;;8.93;;
56329;SDS011;42236;48.058;10.632;2023-02-15T16:16:21;12.90;;;9.30;;
56329;SDS011;42236;48.058;10.632;2023-02-15T16:19:15;14.30;;;10.33;;
56329;SDS011;42236;48.058;10.632;2023-02-15T16:22:06;17.57;;;11.20;;
56329;SDS011;42236;48.058;10.632;2023-02-15T16:25:07;15.27;;;10.70;;
56329;SDS011;42236;48.058;10.632;2023-02-15T16:28:22;13.30;;;10.10;;
56329;SDS011;42236;48.058;10.632;2023-02-15T16:31:12;17.43;;;10.63;;
56329;SDS011;42236;48.058;10.632;2023-02-15T16:34:00;17.30;;;11.67;;
56329;SDS011;42236;48.058;10.632;2023-02-15T16:36:45;17.30;;;10.93;;
56329;SDS011;42236;48.058;10.632;2023-02-15T16:39:31;19.63;;;13.27;;
56329;SDS011;42236;48.058;10.632;2023-02-15T16:42:26;23.37;;;15.67;;
56329;SDS011;42236;48.058;10.632;2023-02-15T16:45:13;25.10;;;16.17;;
56329;SDS011;42236;48.058;10.632;2023-02-15T16:48:04;41.60;;;21.57;;
56329;SDS011;42236;48.058;10.632;2023-02-15T16:50:58;23.30;;;15.20;;
56329;SDS011;42236;48.058;10.632;2023-02-15T16:53:45;27.10;;;16.13;;
56329;SDS011;42236;48.058;10.632;2023-02-15T16:56:32;20.63;;;14.33;;
56329;SDS011;42236;48.058;10.632;2023-02-15T16:59:22;22.80;;;14.90;;
56329;SDS011;42236;48.058;10.632;2023-02-15T17:02:28;21.50;;;12.83;;
56329;SDS011;42236;48.058;10.632;2023-02-15T17:05:17;18.47;;;11.93;;
56329;SDS011;42236;48.058;10.632;2023-02-15T17:08:10;17.87;;;12.50;;
56329;SDS011;42236;48.058;10.632;2023-02-15T17:17:00;18.83;;;12.50;;
56329;SDS011;42236;48.058;10.632;2023-02-15T17:20:11;16.63;;;12.30;;
56329;SDS011;42236;48.058;10.632;2023-02-15T17:22:59;14.73;;;11.80;;
56329;SDS011;42236;48.058;10.632;2023-02-15T17:25:46;19.30;;;12.90;;
56329;SDS011;42236;48.058;10.632;2023-02-15T17:28:32;23.87;;;13.47;;
56329;SDS011;42236;48.058;10.632;2023-02-15T17:31:18;20.67;;;14.30;;
56329;SDS011;42236;48.058;10.632;2023-02-15T17:34:04;21.40;;;14.20;;
56329;SDS011;42236;48.058;10.632;2023-02-15T17:36:59;17.97;;;11.77;;
56329;SDS011;42236;48.058;10.632;2023-02-15T17:39:47;18.60;;;13.73;;
56329;SDS011;42236;48.058;10.632;2023-02-15T17:42:33;19.10;;;12.67;;
56329;SDS011;42236;48.058;10.632;2023-02-15T17:45:19;18.83;;;12.93;;
56329;SDS011;42236;48.058;10.632;2023-02-15T17:48:06;18.37;;;11.40;;
56329;SDS011;42236;48.058;10.632;2023-02-15T17:51:02;23.47;;;14.53;;
56329;SDS011;42236;48.058;10.632;2023-02-15T17:53:50;20.53;;;14.20;;
56329;SDS011;42236;48.058;10.632;2023-02-15T17:56:54;19.07;;;12.10;;
56329;SDS011;42236;48.058;10.632;2023-02-15T17:59:40;19.30;;;11.33;;
56329;SDS011;42236;48.058;10.632;2023-02-15T18:02:45;20.83;;;11.97;;
56329;SDS011;42236;48.058;10.632;2023-02-15T18:05:49;21.13;;;13.63;;
56329;SDS011;42236;48.058;10.632;2023-02-15T18:08:54;30.93;;;14.80;;
56329;SDS011;42236;48.058;10.632;2023-02-15T18:11:58;23.27;;;14.50;;
56329;SDS011;42236;48.058;10.632;2023-02-15T18:14:44;23.10;;;14.97;;
56329;SDS011;42236;48.058;10.632;2023-02-15T18:17:36;25.47;;;14.07;;
56329;SDS011;42236;48.058;10.632;2023-02-15T18:20:25;20.57;;;13.43;;
56329;SDS011;42236;48.058;10.632;2023-02-15T18:23:15;18.23;;;13.53;;
56329;SDS011;42236;48.058;10.632;2023-02-15T18:26:01;23.23;;;15.60;;
56329;SDS011;42236;48.058;10.632;2023-02-15T18:28:47;26.07;;;16.27;;
56329;SDS011;42236;48.058;10.632;2023-02-15T18:31:33;31.33;;;18.50;;
56329;SDS011;42236;48.058;10.632;2023-02-15T18:34:20;21.97;;;12.87;;
56329;SDS011;42236;48.058;10.632;2023-02-15T18:37:18;19.77;;;13.00;;
56329;SDS011;42236;48.058;10.632;2023-02-15T18:40:12;17.23;;;12.00;;
56329;SDS011;42236;48.058;10.632;2023-02-15T18:43:00;19.57;;;11.93;;
56329;SDS011;42236;48.058;10.632;2023-02-15T18:45:46;15.97;;;11.57;;
56329;SDS011;42236;48.058;10.632;2023-02-15T18:48:31;19.00;;;11.87;;
56329;SDS011;42236;48.058;10.632;2023-02-15T18:51:21;17.77;;;12.43;;
56329;SDS011;42236;48.058;10.632;2023-02-15T18:54:14;19.47;;;13.60;;
56329;SDS011;42236;48.058;10.632;2023-02-15T18:57:02;22.67;;;14.30;;
56329;SDS011;42236;48.058;10.632;2023-02-15T18:59:48;27.07;;;17.20;;
56329;SDS011;42236;48.058;10.632;2023-02-15T19:02:34;22.80;;;15.23;;
56329;SDS011;42236;48.058;10.632;2023-02-15T19:05:19;25.80;;;16.33;;
56329;SDS011;42236;48.058;10.632;2023-02-15T19:08:08;27.90;;;17.47;;
56329;SDS011;42236;48.058;10.632;2023-02-15T19:11:01;29.00;;;18.67;;
56329;SDS011;42236;48.058;10.632;2023-02-15T19:13:46;33.50;;;20.37;;
56329;SDS011;42236;48.058;10.632;2023-02-15T19:16:33;34.10;;;19.63;;
56329;SDS011;42236;48.058;10.632;2023-02-15T19:19:20;34.07;;;20.03;;
56329;SDS011;42236;48.058;10.632;2023-02-15T19:22:10;35.63;;;18.97;;
56329;SDS011;42236;48.058;10.632;2023-02-15T19:24:59;30.77;;;18.30;;
56329;SDS011;42236;48.058;10.632;2023-02-15T19:27:47;27.93;;;17.87;;
56329;SDS011;42236;48.058;10.632;2023-02-15T19:30:33;22.80;;;14.30;;
56329;SDS011;42236;48.058;10.632;2023-02-15T19:33:19;24.27;;;16.30;;
56329;SDS011;42236;48.058;10.632;2023-02-15T19:36:05;28.97;;;18.10;;
56329;SDS011;42236;48.058;10.632;2023-02-15T19:38:57;26.87;;;17.03;;
56329;SDS011;42236;48.058;10.632;2023-02-15T19:41:43;23.97;;;14.83;;